Time;durP1;ratioP1;P1;durP2;ratioP2;P2;SDS_P1;SDS_P2;PMS_P1;PMS_P2;Temp;Humidity;BMP_temperature;BMP_pressure;BME280_temperature;BME280_humidity;BME280_pressure;Samples;Min_cycle;Max_cycle;Signal;HPM_P1;HPM_P2
2022/06/08 00:01:40;;;;;;;1.95;0.38;;;;;;;19.23;69.17;99475.09;5014229;28;20030;-94
2022/06/08 00:04:09;;;;;;;1.52;0.40;;;;;;;19.29;69.42;99485.00;5014208;28;20038;-94
2022/06/08 00:06:35;;;;;;;0.70;0.43;;;;;;;19.02;69.84;99470.50;5013115;28;20481;-94
2022/06/08 00:09:00;;;;;;;3.33;0.40;;;;;;;19.15;69.18;99470.69;5012787;28;20029;-93
2022/06/08 00:11:25;;;;;;;2.25;0.50;;;;;;;18.97;70.02;99472.88;5014167;28;20536;-94
2022/06/08 00:13:51;;;;;;;1.17;0.38;;;;;;;19.08;69.85;99468.97;5013725;28;20033;-93
2022/06/08 00:16:16;;;;;;;2.95;0.40;;;;;;;18.92;70.60;99460.13;5029204;28;20022;-95
2022/06/08 00:18:44;;;;;;;1.35;0.50;;;;;;;19.18;69.44;99462.34;5013106;28;20030;-95
2022/06/08 00:21:11;;;;;;;1.05;0.52;;;;;;;19.30;69.03;99459.22;5013713;28;20022;-93
2022/06/08 00:23:37;;;;;;;0.77;0.55;;;;;;;18.90;70.19;99454.16;5013551;28;20021;-94
2022/06/08 00:26:03;;;;;;;1.05;0.80;;;;;;;18.94;70.25;99444.81;5012459;28;20064;-94
2022/06/08 00:28:28;;;;;;;1.13;0.57;;;;;;;19.01;70.22;99451.03;5012179;28;20025;-92
2022/06/08 00:30:54;;;;;;;2.63;0.57;;;;;;;18.99;70.53;99445.06;5012302;28;20018;-93
2022/06/08 00:33:19;;;;;;;3.70;1.30;;;;;;;18.88;70.71;99436.72;5013515;28;20109;-94
2022/06/08 00:35:44;;;;;;;2.25;0.43;;;;;;;19.05;70.05;99435.53;5013196;28;20036;-94
2022/06/08 00:38:10;;;;;;;1.25;0.50;;;;;;;19.00;70.00;99433.44;5012160;28;20117;-93
2022/06/08 00:40:54;;;;;;;2.45;0.40;;;;;;;19.27;69.63;99423.16;5013342;28;20030;-94
2022/06/08 00:43:19;;;;;;;0.85;0.40;;;;;;;19.30;69.26;99409.47;5013671;28;20511;-94
2022/06/08 00:45:46;;;;;;;0.80;0.57;;;;;;;19.29;69.37;99410.47;5013441;28;20029;-94
2022/06/08 00:48:12;;;;;;;1.75;0.40;;;;;;;19.23;69.27;99408.56;5013524;28;20021;-94
2022/06/08 00:50:43;;;;;;;0.82;0.50;;;;;;;19.03;70.45;99401.13;5013325;28;20030;-94
2022/06/08 00:53:13;;;;;;;1.92;0.43;;;;;;;19.24;69.81;99407.56;5013404;28;20643;-93
2022/06/08 00:55:40;;;;;;;0.90;0.30;;;;;;;19.32;69.30;99412.78;5013068;28;20030;-94
2022/06/08 00:58:29;;;;;;;0.98;0.40;;;;;;;19.34;69.28;99400.13;5013378;28;20030;-94
2022/06/08 01:00:55;;;;;;;0.65;0.50;;;;;;;19.33;69.49;99402.94;5011924;28;20025;-94
2022/06/08 01:03:21;;;;;;;0.82;0.30;;;;;;;19.40;69.13;99403.88;5011845;28;20033;-94
2022/06/08 01:06:00;;;;;;;0.80;0.32;;;;;;;19.46;68.99;99407.63;5012655;28;20022;-94
2022/06/08 01:08:43;;;;;;;0.52;0.30;;;;;;;19.57;68.51;99399.16;5011705;28;20021;-94
2022/06/08 01:11:20;;;;;;;1.30;0.52;;;;;;;19.57;68.69;99399.16;5013189;28;20109;-94
2022/06/08 01:13:46;;;;;;;0.95;0.50;;;;;;;19.50;68.88;99408.91;5011516;28;20025;-93
2022/06/08 01:16:12;;;;;;;0.77;0.38;;;;;;;19.40;68.83;99393.22;5012695;28;20499;-92
2022/06/08 01:18:39;;;;;;;2.78;0.50;;;;;;;19.49;68.83;99391.28;5011620;28;20072;-93
2022/06/08 01:21:22;;;;;;;1.17;0.43;;;;;;;19.67;68.77;99391.69;5012998;28;20022;-93
2022/06/08 01:23:56;;;;;;;0.88;0.40;;;;;;;19.65;68.82;99391.06;5011413;28;20030;-92
2022/06/08 01:26:30;;;;;;;2.83;0.73;;;;;;;19.59;68.99;99391.81;5011363;28;20030;-94
2022/06/08 01:29:10;;;;;;;0.85;0.30;;;;;;;19.66;68.60;99392.69;5012931;28;20105;-93
2022/06/08 01:32:01;;;;;;;1.83;0.73;;;;;;;19.55;69.05;99385.19;5011581;28;20145;-92
2022/06/08 01:34:39;;;;;;;1.23;0.40;;;;;;;19.65;68.97;99382.22;5012494;28;20041;-94
2022/06/08 01:37:30;;;;;;;1.70;0.60;;;;;;;19.77;68.60;99378.13;5012588;28;20558;-95
2022/06/08 01:40:10;;;;;;;0.80;0.70;;;;;;;19.74;68.60;99381.97;4996943;28;20085;-93
2022/06/08 01:42:51;;;;;;;1.75;0.90;;;;;;;19.74;69.57;99384.63;5023540;28;20041;-94
2022/06/08 01:45:37;;;;;;;0.77;0.65;;;;;;;19.62;69.76;99378.13;5031034;28;20147;-94
2022/06/08 01:48:16;;;;;;;0.80;0.68;;;;;;;19.60;69.54;99361.50;5030687;28;20029;-94
2022/06/08 01:51:19;;;;;;;1.10;0.93;;;;;;;19.68;69.89;99373.88;5031980;28;20087;-94
2022/06/08 01:53:44;;;;;;;1.08;0.88;;;;;;;19.53;70.96;99373.91;5032265;28;20499;-94
2022/06/08 01:56:48;;;;;;;4.00;0.90;;;;;;;19.63;70.37;99371.78;5031294;28;20030;-94
2022/06/08 01:59:37;;;;;;;1.00;0.90;;;;;;;19.64;70.36;99362.78;5032328;28;20025;-94
2022/06/08 02:02:02;;;;;;;1.27;0.75;;;;;;;19.61;70.41;99357.84;5030515;28;20112;-94
2022/06/08 02:04:45;;;;;;;1.10;1.00;;;;;;;19.79;70.16;99360.09;5032513;28;20108;-94
2022/06/08 02:07:46;;;;;;;1.17;0.90;;;;;;;19.60;70.80;99364.16;5031175;28;20029;-94
2022/06/08 02:10:23;;;;;;;1.35;0.80;;;;;;;19.49;71.01;99365.50;4978298;28;20075;-94
2022/06/08 02:12:54;;;;;;;1.45;0.98;;;;;;;19.52;71.06;99369.63;5030622;28;20119;-94
2022/06/08 02:15:27;;;;;;;2.13;0.93;;;;;;;19.22;72.20;99367.00;5030961;28;20028;-94
2022/06/08 02:17:56;;;;;;;1.17;0.50;;;;;;;19.65;70.85;99387.56;5033690;28;20025;-94
2022/06/08 02:20:28;;;;;;;0.93;0.50;;;;;;;19.65;70.78;99387.56;5034840;28;20151;-95
2022/06/08 02:23:15;;;;;;;1.60;0.55;;;;;;;19.44;71.15;99378.53;5036024;28;20546;-94
2022/06/08 02:25:46;;;;;;;2.13;0.60;;;;;;;19.40;71.15;99383.41;5035874;28;20119;-95
2022/06/08 02:28:18;;;;;;;0.63;0.38;;;;;;;19.42;71.71;99378.72;5036260;28;20026;-95
2022/06/08 02:30:51;;;;;;;0.75;0.40;;;;;;;19.62;70.82;99380.78;5036421;28;20044;-94
2022/06/08 02:36:17;;;;;;;3.35;0.70;;;;;;;19.35;70.91;99374.31;5036125;28;20060;-95
2022/06/08 02:38:51;;;;;;;4.00;0.80;;;;;;;19.51;70.23;99362.63;5035337;28;20388;-93
2022/06/08 02:41:19;;;;;;;3.30;0.68;;;;;;;19.49;70.71;99376.16;5036013;28;20037;-94
2022/06/08 02:43:53;;;;;;;1.10;0.60;;;;;;;19.47;69.67;99372.84;5035399;28;20057;-94
2022/06/08 02:46:43;;;;;;;7.97;1.45;;;;;;;19.38;70.16;99363.31;5034532;28;20108;-94
2022/06/08 02:49:09;;;;;;;4.68;1.13;;;;;;;19.28;70.64;99371.59;5034401;28;20029;-94
2022/06/08 02:51:36;;;;;;;4.88;1.17;;;;;;;19.41;70.42;99370.91;5034252;28;20026;-94
2022/06/08 02:54:05;;;;;;;5.63;0.93;;;;;;;19.46;69.55;99362.38;5035391;28;20033;-94
2022/06/08 02:56:34;;;;;;;4.57;1.00;;;;;;;19.27;69.88;99359.28;5033957;28;20026;-93
2022/06/08 02:59:13;;;;;;;2.85;1.00;;;;;;;19.24;69.67;99367.66;5035030;28;20030;-95
2022/06/08 03:01:42;;;;;;;2.47;0.70;;;;;;;19.30;69.46;99366.09;5034097;28;20057;-93
2022/06/08 03:04:17;;;;;;;6.10;1.05;;;;;;;19.23;69.46;99352.69;5033821;28;20107;-93
2022/06/08 03:06:49;;;;;;;2.75;1.02;;;;;;;18.89;70.12;99359.41;5035288;28;20032;-93
2022/06/08 03:09:15;;;;;;;5.93;1.38;;;;;;;18.97;70.21;99355.84;5035452;28;20075;-93
2022/06/08 03:11:44;;;;;;;4.18;0.77;;;;;;;18.97;69.52;99346.00;5034809;28;20490;-92
2022/06/08 03:14:12;;;;;;;3.13;1.30;;;;;;;18.75;70.80;99346.91;5035120;28;20388;-94
2022/06/08 03:17:00;;;;;;;6.05;1.02;;;;;;;18.62;70.90;99348.38;5033633;28;20079;-93
2022/06/08 03:19:27;;;;;;;2.83;1.02;;;;;;;18.85;70.79;99355.47;5034406;28;20029;-93
2022/06/08 03:21:54;;;;;;;5.20;1.42;;;;;;;19.01;69.71;99349.94;5034592;28;20026;-93
2022/06/08 03:24:21;;;;;;;10.90;2.17;;;;;;;18.92;70.09;99343.09;5034427;28;20030;-93
2022/06/08 03:26:51;;;;;;;10.07;1.40;;;;;;;18.99;69.20;99338.66;5034782;28;20026;-93
2022/06/08 03:29:17;;;;;;;7.93;1.98;;;;;;;19.03;69.34;99345.25;5034256;28;20078;-92
2022/06/08 03:31:42;;;;;;;8.30;1.83;;;;;;;18.98;68.95;99353.00;5034676;28;20096;-93
2022/06/08 03:34:08;;;;;;;9.20;1.40;;;;;;;19.45;67.35;99352.72;5034264;28;20035;-93
2022/06/08 03:36:34;;;;;;;5.93;1.65;;;;;;;19.28;67.48;99350.28;5034233;28;20379;-94
2022/06/08 03:38:59;;;;;;;11.90;3.45;;;;;;;19.36;67.53;99347.53;5033665;28;20571;-93
2022/06/08 03:41:25;;;;;;;9.23;1.73;;;;;;;19.45;66.77;99353.56;5034674;28;20025;-93
2022/06/08 03:43:50;;;;;;;10.55;2.28;;;;;;;19.56;65.79;99338.94;5034526;28;20480;-93
2022/06/08 03:46:17;;;;;;;8.02;1.73;;;;;;;19.74;65.96;99347.34;5034152;28;20030;-93
2022/06/08 03:48:45;;;;;;;8.02;1.98;;;;;;;19.68;65.92;99340.06;5034212;28;20051;-93
2022/06/08 03:51:12;;;;;;;14.10;1.60;;;;;;;19.57;65.94;99343.25;5034236;28;20109;-94
2022/06/08 03:53:52;;;;;;;8.10;1.88;;;;;;;19.71;65.97;99347.72;5033974;28;20033;-92
2022/06/08 03:56:19;;;;;;;5.70;1.13;;;;;;;19.72;65.94;99346.69;5034272;28;20021;-95
2022/06/08 03:58:45;;;;;;;7.60;1.55;;;;;;;19.79;66.27;99357.44;5034048;28;20053;-93
2022/06/08 04:01:12;;;;;;;5.80;1.40;;;;;;;19.84;65.72;99352.34;5032947;28;20488;-94
2022/06/08 04:03:37;;;;;;;3.58;1.00;;;;;;;19.73;66.10;99351.03;5033836;28;20025;-93
2022/06/08 04:06:03;;;;;;;11.38;2.40;;;;;;;19.66;66.28;99358.09;5033943;28;20032;-94
2022/06/08 04:08:28;;;;;;;8.52;1.67;;;;;;;19.71;66.10;99352.22;5032528;28;20536;-93
2022/06/08 04:10:54;;;;;;;6.50;1.77;;;;;;;19.53;66.62;99363.25;5032592;28;20048;-94
2022/06/08 04:13:19;;;;;;;6.07;1.58;;;;;;;19.74;66.14;99358.00;5033951;28;20104;-93
2022/06/08 04:15:45;;;;;;;7.28;2.42;;;;;;;19.61;66.33;99369.31;5032851;28;20018;-94
2022/06/08 04:18:22;;;;;;;8.82;2.03;;;;;;;19.57;65.56;99372.53;5032592;28;20479;-93
2022/06/08 04:20:53;;;;;;;10.75;1.83;;;;;;;19.35;65.01;99375.16;5033849;28;20021;-94
2022/06/08 04:23:21;;;;;;;7.00;1.98;;;;;;;19.62;64.75;99378.94;5032401;28;20384;-93
2022/06/08 04:25:48;;;;;;;5.40;1.30;;;;;;;19.61;64.28;99369.31;5031757;28;20500;-94
2022/06/08 04:28:13;;;;;;;8.07;1.48;;;;;;;19.64;63.83;99375.28;5033196;28;20080;-92
2022/06/08 04:30:40;;;;;;;9.60;1.38;;;;;;;19.47;64.25;99372.00;5033191;28;20044;-93
2022/06/08 04:33:06;;;;;;;9.60;1.50;;;;;;;19.64;63.99;99377.94;5033152;28;20092;-93
2022/06/08 04:35:33;;;;;;;4.63;1.10;;;;;;;19.81;63.39;99372.22;5033155;28;20030;-93
2022/06/08 04:37:58;;;;;;;8.90;1.42;;;;;;;19.40;64.21;99370.09;5033329;28;20036;-92
2022/06/08 04:40:25;;;;;;;9.00;1.58;;;;;;;19.61;63.88;99374.63;5032608;28;20022;-93
2022/06/08 04:42:50;;;;;;;7.68;1.50;;;;;;;19.77;63.30;99373.59;5033093;28;20387;-93
2022/06/08 04:45:16;;;;;;;7.18;1.63;;;;;;;19.78;63.29;99369.91;5033640;28;20032;-93
2022/06/08 04:47:42;;;;;;;8.27;1.50;;;;;;;19.79;63.08;99374.25;5032123;28;20057;-93
2022/06/08 04:50:09;;;;;;;3.22;0.73;;;;;;;19.89;62.35;99367.78;5033212;28;20108;-93
2022/06/08 04:52:35;;;;;;;7.70;1.60;;;;;;;19.85;62.56;99377.16;5031583;28;20036;-94
2022/06/08 04:55:01;;;;;;;8.98;1.65;;;;;;;19.95;62.21;99380.34;5033091;28;20475;-93
2022/06/08 04:57:27;;;;;;;7.65;1.20;;;;;;;19.89;61.92;99376.59;5031819;28;20024;-93
2022/06/08 04:59:52;;;;;;;7.70;1.30;;;;;;;19.79;62.17;99382.22;5032844;28;20037;-93
2022/06/08 05:03:18;;;;;;;5.53;0.93;;;;;;;19.91;61.69;99379.06;5032889;28;20022;-93
2022/06/08 05:05:15;;;;;;;7.15;1.60;;;;;;;19.85;61.42;99385.16;5019501;28;20038;-94
2022/06/08 05:07:41;;;;;;;3.17;0.75;;;;;;;19.98;61.67;99390.59;5031508;28;20029;-93
2022/06/08 05:10:07;;;;;;;11.07;1.13;;;;;;;19.98;60.32;99390.59;5031270;28;20032;-92
2022/06/08 05:12:33;;;;;;;5.70;0.82;;;;;;;19.98;61.22;99379.94;5032220;28;20108;-93
2022/06/08 05:14:58;;;;;;;6.90;0.93;;;;;;;20.14;60.35;99377.03;5032166;28;20104;-94
2022/06/08 05:17:24;;;;;;;8.73;1.23;;;;;;;20.01;60.11;99361.75;5032402;28;20040;-93
2022/06/08 05:19:50;;;;;;;9.95;1.20;;;;;;;20.26;59.73;99379.16;5032478;28;20021;-94
2022/06/08 05:22:15;;;;;;;6.13;0.77;;;;;;;20.45;59.52;99378.50;5031363;28;20033;-92
2022/06/08 05:24:41;;;;;;;5.88;1.95;;;;;;;20.75;58.91;99378.34;5030293;28;20025;-91
2022/06/08 05:27:06;;;;;;;4.22;0.77;;;;;;;20.69;58.79;99379.13;5028726;28;20040;-91
2022/06/08 05:29:31;;;;;;;5.15;1.15;;;;;;;20.47;58.86;99384.47;5027251;28;20482;-92
2022/06/08 05:31:57;;;;;;;4.55;0.60;;;;;;;20.63;58.03;99388.72;5026886;28;20037;-90
2022/06/08 05:34:23;;;;;;;6.35;1.35;;;;;;;20.69;57.99;99379.13;5028697;28;20235;-91
2022/06/08 05:36:48;;;;;;;4.63;0.85;;;;;;;21.00;57.35;99386.69;5032003;28;20471;-91
2022/06/08 05:39:13;;;;;;;4.85;1.15;;;;;;;21.12;56.78;99382.44;5031241;28;20048;-90
2022/06/08 05:41:39;;;;;;;4.93;0.88;;;;;;;20.93;57.27;99376.00;5030384;28;20387;-91
2022/06/08 05:44:04;;;;;;;4.93;0.70;;;;;;;20.77;57.43;99381.63;5030316;28;20087;-91
2022/06/08 05:46:29;;;;;;;6.90;1.30;;;;;;;20.52;58.32;99392.72;5031794;28;20490;-91
2022/06/08 05:48:55;;;;;;;3.25;0.68;;;;;;;20.45;58.70;99391.84;5032846;28;20040;-95
2022/06/08 05:51:20;;;;;;;4.68;0.70;;;;;;;20.53;58.55;99391.69;5033408;28;20026;-93
2022/06/08 05:53:46;;;;;;;4.97;0.80;;;;;;;20.39;58.42;99392.63;5050937;28;20079;-93
2022/06/08 05:56:11;;;;;;;5.10;1.05;;;;;;;20.05;59.28;99380.03;5050583;28;20030;-90
2022/06/08 05:58:37;;;;;;;5.13;0.90;;;;;;;20.21;58.89;99396.56;5034309;28;20025;-94
2022/06/08 06:01:03;;;;;;;5.07;0.70;;;;;;;20.53;58.51;99399.69;5034780;28;20026;-94
2022/06/08 06:03:28;;;;;;;6.95;0.85;;;;;;;20.62;58.18;99397.75;5035888;28;20036;-93
2022/06/08 06:05:54;;;;;;;6.43;0.80;;;;;;;20.37;58.93;99389.31;5036457;28;20028;-94
2022/06/08 06:08:19;;;;;;;5.55;0.90;;;;;;;20.65;57.78;99377.84;5035362;28;20104;-94
2022/06/08 06:10:46;;;;;;;3.88;0.77;;;;;;;20.84;57.32;99379.84;5035488;28;20044;-94
2022/06/08 06:13:12;;;;;;;7.97;1.20;;;;;;;19.86;59.83;99376.16;5034566;28;20148;-94
2022/06/08 06:15:37;;;;;;;5.85;0.75;;;;;;;20.67;58.54;99381.16;5035588;28;20100;-93
2022/06/08 06:18:05;;;;;;;6.95;0.60;;;;;;;21.49;55.67;99390.25;5035121;28;20026;-92
2022/06/08 06:20:31;;;;;;;10.45;1.30;;;;;;;19.11;61.66;99388.75;5035637;28;20484;-93
2022/06/08 06:22:57;;;;;;;5.03;0.95;;;;;;;21.16;56.76;99393.56;5035231;28;20484;-94
2022/06/08 06:25:23;;;;;;;4.55;0.93;;;;;;;23.51;52.62;99385.44;5039263;28;20029;-93
2022/06/08 06:27:48;;;;;;;5.68;0.75;;;;;;;25.12;47.96;99396.59;5038180;28;20033;-92
2022/06/08 06:30:15;;;;;;;7.45;1.80;;;;;;;24.83;47.38;99392.78;5036188;28;20037;-91
2022/06/08 06:32:41;;;;;;;6.65;1.08;;;;;;;26.10;44.44;99390.16;5034482;28;20026;-91
2022/06/08 06:35:15;;;;;;;6.47;2.22;;;;;;;30.09;37.15;99367.53;5033563;28;20048;-90
2022/06/08 06:37:40;;;;;;;6.88;1.35;;;;;;;26.51;42.72;99393.84;5035128;28;20041;-91
2022/06/08 06:40:07;;;;;;;4.40;0.88;;;;;;;25.54;44.96;99396.72;5033623;28;20017;-92
2022/06/08 06:42:33;;;;;;;5.30;0.95;;;;;;;24.18;47.87;99401.97;5033449;28;20035;-91
2022/06/08 06:44:59;;;;;;;9.52;1.15;;;;;;;22.45;51.67;99407.91;5036690;28;20571;-92
2022/06/08 06:47:24;;;;;;;8.15;1.13;;;;;;;22.21;53.30;99412.78;5035411;28;20053;-92
2022/06/08 06:49:50;;;;;;;9.00;1.17;;;;;;;21.67;54.16;99406.53;5037206;28;20030;-91
2022/06/08 06:52:17;;;;;;;4.95;0.85;;;;;;;21.64;54.90;99422.13;5036145;28;20083;-91
2022/06/08 06:54:43;;;;;;;8.13;1.00;;;;;;;21.07;56.62;99422.25;5038987;28;20021;-92
2022/06/08 06:57:08;;;;;;;6.22;1.05;;;;;;;22.44;52.26;99433.84;5036176;28;20028;-91
2022/06/08 06:59:34;;;;;;;5.93;0.88;;;;;;;21.52;54.23;99436.03;5035765;28;20468;-92
2022/06/08 07:01:59;;;;;;;6.47;0.98;;;;;;;24.10;48.05;99435.22;5035741;28;20026;-92
2022/06/08 07:04:25;;;;;;;4.38;0.77;;;;;;;23.22;51.31;99435.81;5034168;28;20175;-92
2022/06/08 07:06:50;;;;;;;5.07;0.90;;;;;;;23.05;50.52;99429.28;5029375;28;20151;-92
2022/06/08 07:09:16;;;;;;;5.68;0.73;;;;;;;22.99;49.88;99435.44;5026120;28;20455;-93
2022/06/08 07:11:42;;;;;;;6.22;0.93;;;;;;;22.30;52.09;99440.22;5026390;28;20412;-92
2022/06/08 07:14:12;;;;;;;3.92;0.60;;;;;;;23.51;49.81;99418.41;5033999;28;20716;-92
2022/06/08 07:16:38;;;;;;;4.82;0.80;;;;;;;22.81;51.26;99439.59;5032786;28;20053;-92
2022/06/08 07:19:06;;;;;;;6.30;0.80;;;;;;;22.60;52.40;99431.78;5039677;28;20037;-92
2022/06/08 07:21:32;;;;;;;6.53;1.30;;;;;;;26.88;42.45;99431.34;5034971;28;20053;-90
2022/06/08 07:23:57;;;;;;;5.18;1.02;;;;;;;27.77;40.63;99442.91;5034777;28;20123;-92
2022/06/08 07:26:28;;;;;;;4.30;1.20;;;;;;;31.50;34.01;99285.63;5033271;28;20056;-91
2022/06/08 07:28:54;;;;;;;4.57;0.80;;;;;;;28.76;38.06;99423.56;5034660;28;20025;-91
2022/06/08 07:31:20;;;;;;;3.67;0.85;;;;;;;26.75;41.60;99431.56;5034284;28;20017;-91
2022/06/08 07:33:45;;;;;;;5.45;0.90;;;;;;;29.58;36.21;99440.88;5025877;28;20021;-90
2022/06/08 07:36:11;;;;;;;6.97;1.02;;;;;;;27.30;40.53;99438.47;5017667;28;20357;-91
2022/06/08 07:38:36;;;;;;;6.78;0.95;;;;;;;26.71;41.84;99441.97;5023989;28;20084;-91
2022/06/08 07:41:02;;;;;;;9.00;1.02;;;;;;;28.65;37.71;99446.06;5026638;28;20559;-91
2022/06/08 07:43:27;;;;;;;6.95;1.00;;;;;;;27.54;39.59;99441.09;5014260;28;20527;-91
2022/06/08 07:45:53;;;;;;;8.75;1.05;;;;;;;28.20;38.66;99441.53;5023340;28;20025;-90
2022/06/08 07:51:02;;;;;;;12.25;1.25;;;;;;;24.65;45.69;99447.25;5034936;28;20071;-91
2022/06/08 07:53:28;;;;;;;5.65;0.95;;;;;;;25.11;44.03;99381.50;5034029;28;20100;-91
2022/06/08 07:55:54;;;;;;;7.43;1.17;;;;;;;25.02;44.52;99450.81;5034308;28;20041;-91
2022/06/08 07:58:20;;;;;;;7.00;0.73;;;;;;;26.60;41.86;99433.91;5022516;28;20026;-91
2022/06/08 08:00:48;;;;;;;10.32;1.55;;;;;;;24.57;44.53;99447.53;5017597;28;20037;-91
2022/06/08 08:03:17;;;;;;;7.53;1.55;;;;;;;27.05;40.28;99444.91;5023824;28;20476;-92
2022/06/08 08:05:44;;;;;;;6.63;1.75;;;;;;;26.34;40.53;99445.88;5019104;28;20029;-91
2022/06/08 08:08:10;;;;;;;5.47;1.10;;;;;;;28.82;36.08;99438.78;5022479;28;20036;-92
2022/06/08 08:10:36;;;;;;;5.75;1.38;;;;;;;23.87;44.26;99451.84;5032550;28;20551;-91
2022/06/08 08:13:02;;;;;;;6.53;1.40;;;;;;;22.58;48.10;99456.88;5033025;28;20025;-91
2022/06/08 08:15:28;;;;;;;8.07;0.93;;;;;;;22.65;49.13;99451.53;5032150;28;20029;-91
2022/06/08 08:17:54;;;;;;;11.00;1.92;;;;;;;22.69;49.68;99455.44;5033034;28;20022;-91
2022/06/08 08:20:21;;;;;;;8.65;1.23;;;;;;;22.93;49.45;99467.38;5032931;28;20484;-91
2022/06/08 08:22:46;;;;;;;9.63;2.42;;;;;;;25.01;45.34;99459.09;5029537;28;20484;-91
2022/06/08 08:25:15;;;;;;;9.82;1.30;;;;;;;25.77;42.33;99457.00;5031841;28;20026;-91
2022/06/08 08:27:41;;;;;;;7.28;1.20;;;;;;;25.08;44.40;99458.00;5033274;28;20056;-91
2022/06/08 08:30:07;;;;;;;6.25;1.77;;;;;;;26.50;41.73;99443.34;5031224;28;20030;-91
2022/06/08 08:32:33;;;;;;;6.03;1.40;;;;;;;28.02;38.73;99443.41;5032754;28;20021;-91
2022/06/08 08:34:58;;;;;;;7.38;1.25;;;;;;;27.42;39.83;99449.22;5032660;28;20026;-92
2022/06/08 08:37:23;;;;;;;8.23;1.23;;;;;;;25.95;41.71;99453.50;5032761;28;20057;-92
2022/06/08 08:39:49;;;;;;;7.70;1.38;;;;;;;24.79;43.94;99447.94;5032437;28;20371;-91
2022/06/08 08:42:22;;;;;;;9.50;1.30;;;;;;;26.65;40.58;99442.09;5022289;28;20033;-92
2022/06/08 08:44:52;;;;;;;6.97;1.60;;;;;;;27.76;39.71;99452.84;5028351;28;20038;-92
2022/06/08 08:47:42;;;;;;;6.15;1.25;;;;;;;25.09;43.22;99456.13;5035469;28;20036;-91
2022/06/08 08:50:20;;;;;;;6.65;1.02;;;;;;;27.39;40.14;99458.59;5032226;28;20091;-93
2022/06/08 08:53:12;;;;;;;7.85;1.10;;;;;;;28.95;37.14;99450.28;5026623;28;20037;-91
2022/06/08 08:55:51;;;;;;;14.45;2.10;;;;;;;28.04;39.26;99465.56;5020886;28;20037;-92
2022/06/08 08:58:26;;;;;;;6.43;1.33;;;;;;;27.43;39.86;99461.63;5023273;28;20030;-92
2022/06/08 09:01:09;;;;;;;8.13;1.52;;;;;;;28.29;38.68;99456.25;5023613;28;20038;-91
2022/06/08 09:03:41;;;;;;;4.45;1.27;;;;;;;29.19;35.78;99465.28;5023457;28;20076;-92
2022/06/08 09:06:12;;;;;;;6.90;1.10;;;;;;;28.99;36.65;99473.03;5024169;28;20026;-92
2022/06/08 09:08:46;;;;;;;5.80;1.60;;;;;;;26.86;40.79;99471.16;5023405;28;20032;-91
2022/06/08 09:11:18;;;;;;;7.57;2.28;;;;;;;25.69;42.10;99471.59;5028947;28;20025;-91
2022/06/08 09:13:46;;;;;;;6.78;1.17;;;;;;;25.18;42.76;99480.81;5032001;28;20059;-91
2022/06/08 09:16:24;;;;;;;5.38;1.15;;;;;;;24.56;43.83;99472.72;5032008;28;20033;-91
2022/06/08 09:18:50;;;;;;;8.38;1.13;;;;;;;25.26;43.08;99472.53;5031515;28;20044;-92
2022/06/08 09:21:21;;;;;;;9.60;1.42;;;;;;;24.99;43.75;99477.31;5031018;28;20479;-91
2022/06/08 09:23:50;;;;;;;4.97;1.02;;;;;;;24.68;45.83;99495.09;5031581;28;20107;-91
2022/06/08 09:26:28;;;;;;;8.13;1.50;;;;;;;25.86;42.85;99483.34;5031917;28;20057;-92
2022/06/08 09:29:15;;;;;;;6.63;1.17;;;;;;;26.99;41.35;99485.44;5031966;28;20060;-92
2022/06/08 09:31:41;;;;;;;7.65;1.83;;;;;;;26.76;40.45;99480.84;5031516;28;20056;-92
2022/06/08 09:34:24;;;;;;;5.32;1.33;;;;;;;26.56;41.16;99486.53;5022134;28;20380;-91
2022/06/08 09:37:26;;;;;;;7.68;1.48;;;;;;;28.92;37.33;99491.34;5012529;28;20033;-92
2022/06/08 09:39:54;;;;;;;4.30;0.90;;;;;;;31.05;34.49;99490.44;5003518;28;20075;-92
2022/06/08 09:42:51;;;;;;;2.50;0.70;;;;;;;32.50;32.07;99484.44;5030787;28;20053;-91
2022/06/08 09:45:19;;;;;;;4.10;0.90;;;;;;;31.40;32.88;99497.97;5027516;28;20033;-92
2022/06/08 09:53:45;;;;;;;5.22;1.10;;;;;;;25.71;40.11;99501.75;5030825;28;20087;-93
2022/06/08 09:56:25;;;;;;;5.18;0.98;;;;;;;28.13;38.89;99514.56;5032006;28;20018;-93
2022/06/08 09:58:59;;;;;;;6.15;1.15;;;;;;;27.61;38.77;99518.09;5031816;28;20022;-93
2022/06/08 10:01:42;;;;;;;7.25;1.30;;;;;;;30.35;35.67;99514.81;5032016;28;20034;-93
2022/06/08 10:04:54;;;;;;;4.88;1.10;;;;;;;31.96;32.15;99510.16;5031911;28;20120;-92
2022/06/08 10:07:37;;;;;;;6.10;1.08;;;;;;;27.40;37.99;99514.13;5031988;28;20484;-92
2022/06/08 10:10:31;;;;;;;3.45;0.80;;;;;;;27.41;38.89;99521.19;5032149;28;20160;-93
2022/06/08 10:13:05;;;;;;;6.28;1.10;;;;;;;26.59;40.46;99521.09;5007012;28;20037;-92
2022/06/08 10:15:44;;;;;;;4.95;0.93;;;;;;;26.57;40.47;99524.00;5028420;28;20026;-91
2022/06/08 10:18:15;;;;;;;6.40;1.63;;;;;;;26.28;40.51;99531.03;5032001;28;20028;-94
2022/06/08 10:20:47;;;;;;;6.75;1.13;;;;;;;26.03;41.15;99537.38;5031531;28;20052;-92
2022/06/08 10:23:28;;;;;;;3.65;0.73;;;;;;;26.36;41.17;99546.84;5031493;28;20033;-91
2022/06/08 10:26:01;;;;;;;7.20;0.90;;;;;;;27.98;38.38;99541.22;5031485;28;20484;-93
2022/06/08 10:28:37;;;;;;;6.88;0.85;;;;;;;28.61;37.34;99529.47;5031031;28;20426;-93
2022/06/08 10:31:54;;;;;;;7.68;1.00;;;;;;;26.21;40.70;99535.72;5031860;28;20100;-92
2022/06/08 10:34:27;;;;;;;10.18;1.10;;;;;;;26.96;40.74;99539.78;5008197;28;20045;-94
2022/06/08 10:36:59;;;;;;;4.43;0.90;;;;;;;27.12;39.82;99533.69;5029365;28;20087;-92
2022/06/08 10:39:27;;;;;;;5.05;0.85;;;;;;;25.52;42.19;99527.84;5032840;28;20112;-91
2022/06/08 10:44:58;;;;;;;9.80;1.33;;;;;;;27.56;39.44;99526.06;5029166;28;20048;-93
2022/06/08 10:47:39;;;;;;;7.00;1.10;;;;;;;29.18;37.32;99547.41;5026402;28;20414;-93
2022/06/08 10:50:04;;;;;;;11.52;1.40;;;;;;;29.53;37.21;99529.25;5034149;28;20030;-91
2022/06/08 10:52:40;;;;;;;8.43;1.55;;;;;;;29.55;36.79;99537.94;5034137;28;20029;-92
2022/06/08 10:55:14;;;;;;;10.27;1.30;;;;;;;27.61;38.57;99525.38;5050257;28;20029;-91
2022/06/08 10:57:51;;;;;;;10.32;1.20;;;;;;;29.15;35.86;99542.53;5050572;28;20056;-91
2022/06/08 11:00:19;;;;;;;11.05;1.70;;;;;;;28.07;37.29;99537.91;5034168;28;20037;-91
2022/06/08 11:02:48;;;;;;;4.90;1.00;;;;;;;27.72;37.99;99537.19;5032781;28;20044;-92
2022/06/08 11:05:28;;;;;;;6.68;1.33;;;;;;;29.39;35.07;99545.03;5034254;28;20048;-92
2022/06/08 11:08:05;;;;;;;4.80;1.20;;;;;;;29.46;35.90;99537.53;5034610;28;20021;-91
2022/06/08 11:10:53;;;;;;;11.43;1.20;;;;;;;30.15;36.00;99542.44;5044924;28;20025;-91
2022/06/08 11:13:22;;;;;;;5.95;1.60;;;;;;;28.36;36.62;99540.63;5044154;28;20038;-91
2022/06/08 11:16:20;;;;;;;10.73;1.90;;;;;;;28.82;36.37;99552.25;5037055;28;20033;-92
2022/06/08 11:18:57;;;;;;;4.47;1.00;;;;;;;27.93;37.01;99562.75;5031300;28;20033;-90
2022/06/08 11:21:28;;;;;;;8.07;1.73;;;;;;;29.46;36.72;99561.88;5025002;28;20034;-91
2022/06/08 11:23:59;;;;;;;12.00;1.88;;;;;;;28.15;37.83;99573.69;5020593;28;20038;-91
2022/06/08 11:26:37;;;;;;;8.88;2.20;;;;;;;26.16;39.93;99567.84;5014655;28;20083;-91
2022/06/08 11:29:17;;;;;;;6.32;1.55;;;;;;;26.28;40.69;99572.25;5031985;28;20072;-91
2022/06/08 11:31:43;;;;;;;9.45;3.15;;;;;;;25.93;40.96;99585.53;5032673;28;20021;-93
2022/06/08 11:34:11;;;;;;;11.38;1.90;;;;;;;26.79;40.28;99569.25;5032452;28;20102;-91
2022/06/08 11:37:02;;;;;;;9.90;1.48;;;;;;;27.77;37.67;99583.16;5021029;28;20029;-93
2022/06/08 11:39:46;;;;;;;5.50;1.10;;;;;;;26.90;36.84;99574.69;5017109;28;20037;-90
2022/06/08 11:42:14;;;;;;;6.80;1.40;;;;;;;27.54;36.88;99594.78;5031778;28;20124;-96
2022/06/08 11:44:43;;;;;;;8.35;1.40;;;;;;;27.08;37.72;99581.03;5034973;28;20061;-96
2022/06/08 11:47:11;;;;;;;8.90;2.30;;;;;;;28.06;38.36;99576.78;5033180;28;20087;-96
2022/06/08 11:49:40;;;;;;;9.88;1.95;;;;;;;28.27;37.85;99571.75;5033680;28;20029;-96
2022/06/08 11:52:23;;;;;;;6.72;1.70;;;;;;;26.64;40.74;99578.59;5034140;28;20079;-96
2022/06/08 11:55:04;;;;;;;16.13;2.10;;;;;;;27.74;39.35;99567.44;5033649;28;20032;-95
2022/06/08 11:57:31;;;;;;;8.55;2.05;;;;;;;27.09;38.61;99583.50;5034132;28;20112;-95
2022/06/08 11:59:58;;;;;;;9.02;1.70;;;;;;;27.19;39.03;99591.00;5050530;28;20089;-96
2022/06/08 12:02:37;;;;;;;9.85;2.03;;;;;;;27.76;38.72;99576.91;5033489;28;20112;-93
2022/06/08 12:05:04;;;;;;;9.88;2.10;;;;;;;26.57;38.46;99585.09;5033417;28;20079;-94